createdAt,value
2019-03-04T00:00:16.630Z,4.2
2019-03-04T00:01:16.655Z,4.2
2019-03-04T00:02:16.658Z,4.1
2019-03-04T00:03:16.689Z,4.2
2019-03-04T00:04:16.718Z,4.1
2019-03-04T00:05:16.758Z,4.2
2019-03-04T00:06:16.759Z,4.2
2019-03-04T00:07:16.793Z,4.2
2019-03-04T00:08:16.837Z,4.2
2019-03-04T00:09:16.822Z,4.1
2019-03-04T00:10:16.886Z,4.1
2019-03-04T00:11:16.843Z,4.2
2019-03-04T00:12:17.052Z,4.2
2019-03-04T00:13:16.895Z,4.2
2019-03-04T00:14:16.931Z,4.2
2019-03-04T00:15:16.914Z,4.3
2019-03-04T00:16:16.939Z,4.1
2019-03-04T00:17:16.929Z,4.1
2019-03-04T00:18:16.962Z,4.2
2019-03-04T00:19:17.050Z,4.1
2019-03-04T00:20:16.994Z,4.2
2019-03-04T00:21:17.005Z,4.1
2019-03-04T00:22:17.016Z,4.1
2019-03-04T00:23:17.004Z,4.1
2019-03-04T00:24:17.030Z,4.1
2019-03-04T00:25:17.032Z,4.2
2019-03-04T00:26:17.068Z,4.1
2019-03-04T00:27:17.056Z,4.2
2019-03-04T00:28:17.089Z,4.1
2019-03-04T00:29:17.104Z,4.1
2019-03-04T00:30:17.086Z,4.1
2019-03-04T00:31:17.106Z,4.1
2019-03-04T00:32:17.100Z,4.1
2019-03-04T00:33:17.115Z,4.1
2019-03-04T00:34:17.132Z,4.1
2019-03-04T00:35:17.117Z,4.3
2019-03-04T00:36:17.129Z,4.2
2019-03-04T00:37:17.122Z,4.1
2019-03-04T00:38:17.176Z,4.1
2019-03-04T00:39:17.137Z,4.2
2019-03-04T00:40:17.127Z,4.2
2019-03-04T00:41:17.139Z,4.2
2019-03-04T00:42:17.167Z,4.2
2019-03-04T00:43:49.443Z,4.2
2019-03-04T00:44:17.179Z,4.2
2019-03-04T00:45:17.188Z,4.2
2019-03-04T00:46:17.167Z,4.2
2019-03-04T00:47:17.165Z,4.2
2019-03-04T00:48:17.167Z,4.2
2019-03-04T00:49:17.229Z,4.2
2019-03-04T00:50:17.247Z,4.2
2019-03-04T00:51:17.217Z,4.2
2019-03-04T00:52:17.201Z,4.2
2019-03-04T00:53:17.212Z,4.2
2019-03-04T00:54:17.223Z,4.2
2019-03-04T00:55:17.241Z,4.3
2019-03-04T00:56:17.231Z,4.3
2019-03-04T00:57:17.282Z,4.3
2019-03-04T00:58:17.231Z,4.3
2019-03-04T00:59:17.258Z,4.3
2019-03-04T01:00:17.237Z,4.2
2019-03-04T01:01:17.308Z,4.3
2019-03-04T01:02:17.302Z,4.4
2019-03-04T01:03:17.296Z,4.3
2019-03-04T01:04:17.288Z,4.3
2019-03-04T01:05:17.257Z,4.3
2019-03-04T01:06:17.288Z,4.4
2019-03-04T01:07:17.295Z,4.4
2019-03-04T01:08:17.296Z,4.3
2019-03-04T01:09:17.278Z,4.3
2019-03-04T01:10:17.282Z,4.4
2019-03-04T01:11:17.295Z,4.4
2019-03-04T01:12:17.326Z,4.4
2019-03-04T01:13:19.807Z,4.2
2019-03-04T01:14:17.326Z,4.3
2019-03-04T01:15:17.366Z,4.4
2019-03-04T01:16:17.532Z,4.4
2019-03-04T01:17:17.427Z,4.4
2019-03-04T01:18:17.461Z,4.4
2019-03-04T01:19:17.453Z,4.4
2019-03-04T01:20:17.484Z,4.5
2019-03-04T01:21:17.519Z,4.4
2019-03-04T01:22:17.758Z,4.4
2019-03-04T01:23:17.602Z,4.4
2019-03-04T01:24:17.548Z,4.4
2019-03-04T01:25:17.570Z,4.4
2019-03-04T01:26:17.644Z,4.3
2019-03-04T01:27:17.637Z,4.5
2019-03-04T01:28:17.780Z,4.4
2019-03-04T01:29:17.682Z,4.4
2019-03-04T01:30:17.664Z,4.4
2019-03-04T01:31:17.692Z,4.4
2019-03-04T01:32:17.704Z,4.4
2019-03-04T01:33:17.700Z,4.4
2019-03-04T01:34:17.749Z,4.4
2019-03-04T01:35:17.747Z,4.3
2019-03-04T01:36:17.752Z,4.4
2019-03-04T01:37:17.786Z,4.4
2019-03-04T01:38:17.804Z,4.5
2019-03-04T01:39:17.788Z,4.4
2019-03-04T01:40:17.773Z,4.4
2019-03-04T01:41:17.817Z,4.4
2019-03-04T01:42:17.779Z,4.4
2019-03-04T01:43:17.810Z,4.4
2019-03-04T01:44:17.826Z,4.4
2019-03-04T01:45:17.850Z,4.3
2019-03-04T01:46:17.818Z,4.4
2019-03-04T01:47:17.834Z,4.4
2019-03-04T01:48:17.827Z,4.2
2019-03-04T01:49:17.864Z,4.4
2019-03-04T01:50:17.844Z,4.5
2019-03-04T01:51:17.866Z,4.4
2019-03-04T01:52:17.827Z,4.5
2019-03-04T01:53:17.891Z,4.4
2019-03-04T01:54:17.844Z,4.4
2019-03-04T01:55:17.872Z,4.4
2019-03-04T01:56:17.854Z,4.5
2019-03-04T01:57:17.903Z,4.5
2019-03-04T01:58:17.906Z,4.4
2019-03-04T01:59:17.868Z,4.5
2019-03-04T02:00:17.933Z,4.4
2019-03-04T02:01:17.983Z,4.4
2019-03-04T02:02:17.996Z,4.4
2019-03-04T02:03:18.036Z,4.4
2019-03-04T02:04:18.030Z,4.4
2019-03-04T02:05:18.038Z,4.4
2019-03-04T02:06:18.112Z,4.4
2019-03-04T02:07:18.152Z,4.4
2019-03-04T02:08:18.171Z,4.4
2019-03-04T02:09:18.220Z,4.4
2019-03-04T02:10:18.208Z,4.4
2019-03-04T02:11:18.298Z,4.5
2019-03-04T02:12:18.360Z,4.4
2019-03-04T02:13:21.740Z,4.4
2019-03-04T02:14:18.395Z,4.4
2019-03-04T02:15:18.396Z,4.4
2019-03-04T02:16:18.388Z,4.4
2019-03-04T02:17:18.451Z,4.4
2019-03-04T02:18:18.482Z,4.4
2019-03-04T02:19:18.519Z,4.5
2019-03-04T02:20:18.563Z,4.5
2019-03-04T02:21:18.582Z,4.5
2019-03-04T02:22:18.594Z,4.5
2019-03-04T02:23:18.606Z,4.5
2019-03-04T02:24:18.662Z,4.4
2019-03-04T02:25:18.698Z,4.4
2019-03-04T02:26:18.700Z,4.4
2019-03-04T02:27:18.756Z,4.4
2019-03-04T02:28:20.994Z,4.4
2019-03-04T02:29:18.811Z,4.4
2019-03-04T02:30:18.799Z,4.4
2019-03-04T02:31:18.815Z,4.4
2019-03-04T02:32:18.865Z,4.4
2019-03-04T02:33:18.865Z,4.4
2019-03-04T02:34:18.910Z,4.3
2019-03-04T02:35:18.922Z,4.3
2019-03-04T02:36:19.058Z,4.3
2019-03-04T02:37:18.969Z,4.3
2019-03-04T02:38:18.974Z,4.4
2019-03-04T02:39:18.985Z,4.4
2019-03-04T02:40:18.994Z,4.5
2019-03-04T02:41:19.024Z,4.3
2019-03-04T02:42:19.037Z,4.3
2019-03-04T02:43:19.049Z,4.3
2019-03-04T02:44:19.076Z,4.3
2019-03-04T02:45:19.073Z,4.2
2019-03-04T02:46:19.087Z,4.3
2019-03-04T02:47:19.098Z,4.4
2019-03-04T02:48:19.132Z,4.3
2019-03-04T02:49:19.119Z,4.3
2019-03-04T02:50:19.106Z,4.3
2019-03-04T02:51:19.142Z,4.3
2019-03-04T02:52:19.162Z,4.3
2019-03-04T02:53:19.181Z,4.3
2019-03-04T02:54:19.173Z,4.3
2019-03-04T02:55:19.186Z,4.3
2019-03-04T02:56:19.285Z,4.3
2019-03-04T02:57:19.234Z,4.3
2019-03-04T02:58:19.259Z,4.3
2019-03-04T02:59:19.329Z,4.3
2019-03-04T03:00:19.283Z,4.2
2019-03-04T03:01:19.248Z,4.3
2019-03-04T03:02:19.305Z,4.3
2019-03-04T03:03:19.297Z,4.3
2019-03-04T03:04:19.301Z,4.2
2019-03-04T03:05:19.330Z,4.2
2019-03-04T03:06:19.333Z,4.3
2019-03-04T03:07:19.343Z,4.3
2019-03-04T03:08:19.330Z,4.2
2019-03-04T03:09:19.370Z,4.2
2019-03-04T03:10:19.331Z,4.2
2019-03-04T03:11:19.382Z,4.3
2019-03-04T03:12:19.381Z,4.2
2019-03-04T03:13:19.337Z,4.2
2019-03-04T03:14:19.340Z,4.3
2019-03-04T03:15:19.348Z,4.2
2019-03-04T03:16:19.371Z,4.2
2019-03-04T03:17:19.351Z,4.2
2019-03-04T03:18:19.393Z,4.2
2019-03-04T03:19:19.422Z,4.2
2019-03-04T03:20:19.371Z,4.2
2019-03-04T03:21:19.385Z,4.2
2019-03-04T03:22:19.436Z,4.2
2019-03-04T03:23:19.462Z,4.2
2019-03-04T03:24:19.513Z,4.2
2019-03-04T03:25:19.549Z,4.1
2019-03-04T03:26:22.040Z,4.1
2019-03-04T03:27:19.567Z,4
2019-03-04T03:28:19.608Z,4
2019-03-04T03:29:19.617Z,4.1
2019-03-04T03:30:19.679Z,4.1
2019-03-04T03:31:19.723Z,4
2019-03-04T03:32:19.728Z,3.9
2019-03-04T03:33:19.814Z,4
2019-03-04T03:34:19.822Z,4
2019-03-04T03:35:19.830Z,4
2019-03-04T03:36:19.842Z,3.9
2019-03-04T03:37:19.960Z,3.9
2019-03-04T03:38:19.903Z,3.9
2019-03-04T03:39:19.929Z,3.9
2019-03-04T03:40:20.054Z,3.9
2019-03-04T03:41:20.041Z,4
2019-03-04T03:42:20.026Z,4
2019-03-04T03:43:20.059Z,4.1
2019-03-04T03:44:20.129Z,4.3
2019-03-04T03:45:20.140Z,4.1
2019-03-04T03:46:20.174Z,4.1
2019-03-04T03:47:20.220Z,4.2
2019-03-04T03:48:20.260Z,4.2
2019-03-04T03:49:20.256Z,4.2
2019-03-04T03:50:20.349Z,4.1
2019-03-04T03:51:20.311Z,4.3
2019-03-04T03:52:20.384Z,4.3
2019-03-04T03:53:20.352Z,4.3
2019-03-04T03:54:20.380Z,4.3
2019-03-04T03:55:20.446Z,4.3
2019-03-04T03:56:20.441Z,4.3
2019-03-04T03:57:20.484Z,4.3
2019-03-04T03:58:20.518Z,4.3
2019-03-04T03:59:20.552Z,4.3
2019-03-04T04:00:20.568Z,4.3
2019-03-04T04:01:20.586Z,4.2
2019-03-04T04:02:20.615Z,4.3
2019-03-04T04:03:20.656Z,4.3
2019-03-04T04:04:20.662Z,4.3
2019-03-04T04:05:20.677Z,4.2
2019-03-04T04:06:20.697Z,4.3
2019-03-04T04:07:20.736Z,4.2
2019-03-04T04:08:20.756Z,4.3
2019-03-04T04:09:20.771Z,4.2
2019-03-04T04:10:20.809Z,4.2
2019-03-04T04:11:20.784Z,4.2
2019-03-04T04:12:20.832Z,4.2
2019-03-04T04:13:20.847Z,4.2
2019-03-04T04:14:20.897Z,4.2
2019-03-04T04:15:20.918Z,4.2
2019-03-04T04:16:20.864Z,4.2
2019-03-04T04:17:20.893Z,4.2
2019-03-04T04:18:20.923Z,4.1
2019-03-04T04:19:20.961Z,4.1
2019-03-04T04:20:20.990Z,4.1
2019-03-04T04:21:21.002Z,4.1
2019-03-04T04:22:21.038Z,4
2019-03-04T04:23:21.062Z,4.1
2019-03-04T04:24:21.058Z,4.1
2019-03-04T04:25:21.127Z,4
2019-03-04T04:26:21.072Z,4
2019-03-04T04:27:21.104Z,4
2019-03-04T04:28:21.135Z,4
2019-03-04T04:29:21.129Z,4
2019-03-04T04:30:21.169Z,4
2019-03-04T04:31:21.145Z,4.1
2019-03-04T04:32:21.201Z,4
2019-03-04T04:33:21.172Z,4
2019-03-04T04:34:21.203Z,4.1
2019-03-04T04:35:21.258Z,4.1
2019-03-04T04:36:21.258Z,4.1
2019-03-04T04:37:21.261Z,4
2019-03-04T04:38:21.288Z,4
2019-03-04T04:39:21.280Z,4
2019-03-04T04:40:21.273Z,4
2019-03-04T04:41:21.301Z,4.1
2019-03-04T04:42:21.286Z,4.1
2019-03-04T04:43:21.292Z,4.1
2019-03-04T04:44:21.298Z,4
2019-03-04T04:45:21.306Z,4
2019-03-04T04:46:21.338Z,4
2019-03-04T04:47:21.339Z,3.9
2019-03-04T04:48:21.376Z,4
2019-03-04T04:49:21.356Z,3.8
2019-03-04T04:50:21.336Z,3.9
2019-03-04T04:51:21.363Z,3.9
2019-03-04T04:52:23.258Z,3.9
2019-03-04T04:53:21.337Z,3.9
2019-03-04T04:54:21.346Z,3.9
2019-03-04T04:55:21.385Z,3.9
2019-03-04T04:56:21.377Z,3.9
2019-03-04T04:57:21.397Z,3.8
2019-03-04T04:58:21.361Z,3.9
2019-03-04T04:59:21.384Z,3.9
2019-03-04T05:00:21.430Z,3.8
2019-03-04T05:01:21.423Z,3.9
2019-03-04T05:02:21.382Z,3.8
2019-03-04T05:03:21.415Z,3.8
2019-03-04T05:04:21.413Z,3.8
2019-03-04T05:05:21.410Z,3.7
2019-03-04T05:06:21.424Z,3.7
2019-03-04T05:07:22.486Z,3.7
2019-03-04T05:08:24.050Z,3.8
2019-03-04T05:09:21.431Z,3.7
2019-03-04T05:10:21.452Z,3.7
2019-03-04T05:11:21.570Z,3.7
2019-03-04T05:12:21.536Z,3.7
2019-03-04T05:13:21.528Z,3.6
2019-03-04T05:14:21.458Z,3.6
2019-03-04T05:15:21.466Z,3.7
2019-03-04T05:16:21.483Z,3.7
2019-03-04T05:17:21.467Z,3.6
2019-03-04T05:18:21.455Z,3.5
2019-03-04T05:19:21.495Z,3.6
2019-03-04T05:20:21.594Z,3.5
2019-03-04T05:21:21.567Z,3.5
2019-03-04T05:22:21.566Z,3.6
2019-03-04T05:23:21.624Z,3.7
2019-03-04T05:24:21.640Z,3.6
2019-03-04T05:25:21.724Z,3.6
2019-03-04T05:26:21.722Z,3.5
2019-03-04T05:27:21.707Z,3.5
2019-03-04T05:28:21.734Z,3.6
2019-03-04T05:29:21.749Z,3.4
2019-03-04T05:30:21.777Z,3.5
2019-03-04T05:31:21.825Z,3.5
2019-03-04T05:32:21.863Z,3.5
2019-03-04T05:33:21.867Z,3.5
2019-03-04T05:34:21.877Z,3.5
2019-03-04T05:35:21.890Z,3.4
2019-03-04T05:36:21.934Z,3.5
2019-03-04T05:37:21.921Z,3.4
2019-03-04T05:38:21.945Z,3.4
2019-03-04T05:39:21.978Z,3.3
2019-03-04T05:40:22.033Z,3.3
2019-03-04T05:41:22.005Z,3.4
2019-03-04T05:42:22.038Z,3.3
2019-03-04T05:43:22.045Z,3.4
2019-03-04T05:44:22.081Z,3.4
2019-03-04T05:45:22.121Z,3.4
2019-03-04T05:46:22.093Z,3.3
2019-03-04T05:47:22.357Z,3.4
2019-03-04T05:48:22.177Z,3.4
2019-03-04T05:49:22.178Z,3.3
2019-03-04T05:50:22.187Z,3.3
2019-03-04T05:51:22.191Z,3.4
2019-03-04T05:52:22.224Z,3.3
2019-03-04T05:53:22.220Z,3.2
2019-03-04T05:54:22.238Z,3.3
2019-03-04T05:55:22.228Z,3.3
2019-03-04T05:56:22.286Z,3.4
2019-03-04T05:57:22.257Z,3.4
2019-03-04T05:58:22.252Z,3.3
2019-03-04T05:59:22.290Z,3.3
2019-03-04T06:00:22.308Z,3.3
2019-03-04T06:01:22.282Z,3.4
2019-03-04T06:02:22.283Z,3.4
2019-03-04T06:03:22.339Z,3.3
2019-03-04T06:04:22.329Z,3.3
2019-03-04T06:05:22.350Z,3.2
2019-03-04T06:06:22.319Z,3.3
2019-03-04T06:07:22.357Z,3.4
2019-03-04T06:08:22.343Z,3.3
2019-03-04T06:09:22.324Z,3.4
2019-03-04T06:10:22.324Z,3.4
2019-03-04T06:11:22.349Z,3.3
2019-03-04T06:12:22.395Z,3.3
2019-03-04T06:13:22.355Z,3.3
2019-03-04T06:14:22.367Z,3.2
2019-03-04T06:15:22.359Z,3.3
2019-03-04T06:16:22.419Z,3.3
2019-03-04T06:17:22.374Z,3.1
2019-03-04T06:18:22.376Z,3.1
2019-03-04T06:19:22.377Z,3.2
2019-03-04T06:20:23.465Z,3.2
2019-03-04T06:21:22.498Z,3.2
2019-03-04T06:22:22.504Z,3.2
2019-03-04T06:23:22.596Z,3.3
2019-03-04T06:24:22.602Z,3.3
2019-03-04T06:25:22.634Z,3.2
2019-03-04T06:26:22.686Z,3.3
2019-03-04T06:27:23.089Z,3.1
2019-03-04T06:28:22.740Z,3.2
2019-03-04T06:29:22.842Z,3.1
2019-03-04T06:30:22.829Z,3.3
2019-03-04T06:31:22.852Z,3.1
2019-03-04T06:32:22.838Z,3.2
2019-03-04T06:33:25.169Z,3.2
2019-03-04T06:34:25.151Z,3.1
2019-03-04T06:35:22.930Z,3.2
2019-03-04T06:36:22.994Z,3.3
2019-03-04T06:37:23.029Z,3.2
2019-03-04T06:38:23.020Z,3.3
2019-03-04T06:39:23.113Z,3.2
2019-03-04T06:40:23.127Z,3.2
2019-03-04T06:41:23.132Z,3.2
2019-03-04T06:42:23.303Z,3.1
2019-03-04T06:43:23.175Z,3.3
2019-03-04T06:44:23.275Z,3.1
2019-03-04T06:45:23.259Z,3.2
2019-03-04T06:46:23.286Z,3.2
2019-03-04T06:47:23.281Z,3.2
2019-03-04T06:48:23.246Z,3
2019-03-04T06:49:24.159Z,3.2
2019-03-04T06:50:23.277Z,3.2
2019-03-04T06:51:23.314Z,3.1
2019-03-04T06:52:23.350Z,3.1
2019-03-04T06:53:23.354Z,3.1
2019-03-04T06:54:23.373Z,3.1
2019-03-04T06:55:23.403Z,3.1
2019-03-04T06:56:23.458Z,3.2
2019-03-04T06:57:28.309Z,3
2019-03-04T06:58:23.485Z,3
2019-03-04T06:59:23.487Z,3
2019-03-04T07:00:23.537Z,3.1
2019-03-04T07:01:23.579Z,3
2019-03-04T07:02:23.578Z,3.1
2019-03-04T07:03:23.645Z,3
2019-03-04T07:04:23.612Z,2.9
2019-03-04T07:05:23.655Z,3
2019-03-04T07:06:23.635Z,3.1
2019-03-04T07:07:23.664Z,3.1
2019-03-04T07:08:23.639Z,2.9
2019-03-04T07:09:23.646Z,2.9
2019-03-04T07:10:23.661Z,3
2019-03-04T07:11:23.682Z,3.1
2019-03-04T07:12:24.528Z,3
2019-03-04T07:13:23.721Z,2.9
2019-03-04T07:14:23.708Z,2.8
2019-03-04T07:15:23.718Z,2.9
2019-03-04T07:16:23.758Z,3
2019-03-04T07:17:23.769Z,3
2019-03-04T07:18:23.770Z,2.9
2019-03-04T07:19:23.778Z,3
2019-03-04T07:20:23.811Z,3
2019-03-04T07:21:23.794Z,2.9
2019-03-04T07:22:23.801Z,2.8
2019-03-04T07:23:23.844Z,2.8
2019-03-04T07:24:23.873Z,2.8
2019-03-04T07:25:23.889Z,3.1
2019-03-04T07:26:23.858Z,2.9
2019-03-04T07:27:23.869Z,2.8
2019-03-04T07:28:23.872Z,2.8
2019-03-04T07:30:23.904Z,2.8
2019-03-04T07:30:28.815Z,2.8
2019-03-04T07:31:23.878Z,3.1
2019-03-04T07:32:23.898Z,2.8
2019-03-04T07:33:23.913Z,2.9
2019-03-04T07:34:23.915Z,3
2019-03-04T07:35:23.898Z,3
2019-03-04T07:36:23.933Z,3
2019-03-04T07:37:23.905Z,3.1
2019-03-04T07:38:23.949Z,3
2019-03-04T07:39:23.893Z,3.1
2019-03-04T07:40:23.961Z,3.1
2019-03-04T07:41:23.920Z,2.7
2019-03-04T07:42:23.945Z,3
2019-03-04T07:43:23.977Z,3.1
2019-03-04T07:44:23.964Z,3.1
2019-03-04T07:45:24.005Z,3
2019-03-04T07:46:24.034Z,3
2019-03-04T07:47:24.031Z,3
2019-03-04T07:48:24.088Z,3
2019-03-04T07:49:24.135Z,3.1
2019-03-04T07:50:24.166Z,3.1
2019-03-04T07:51:24.195Z,3.1
2019-03-04T07:52:24.214Z,3.1
2019-03-04T07:53:24.341Z,3.1
2019-03-04T07:54:24.285Z,3
2019-03-04T07:55:24.325Z,3.1
2019-03-04T07:56:24.341Z,3.3
2019-03-04T07:57:24.422Z,3.3
2019-03-04T07:58:26.670Z,3
2019-03-04T07:59:24.512Z,3.2
2019-03-04T08:00:25.053Z,3.2
2019-03-04T08:01:24.612Z,3.2
2019-03-04T08:02:24.546Z,3.2
2019-03-04T08:03:24.581Z,3.1
2019-03-04T08:04:24.608Z,3.1
2019-03-04T08:05:24.668Z,3.1
2019-03-04T08:06:24.678Z,2.9
2019-03-04T08:07:24.711Z,2.9
2019-03-04T08:08:24.730Z,2.9
2019-03-04T08:09:24.791Z,2.9
2019-03-04T08:10:24.848Z,3.1
2019-03-04T08:11:24.808Z,2.9
2019-03-04T08:12:24.894Z,3
2019-03-04T08:13:24.893Z,3
2019-03-04T08:14:24.924Z,2.9
2019-03-04T08:15:24.954Z,3.1
2019-03-04T08:16:25.003Z,2.8
2019-03-04T08:17:25.015Z,3.1
2019-03-04T08:18:25.036Z,3
2019-03-04T08:19:25.071Z,3
2019-03-04T08:20:25.109Z,3
2019-03-04T08:21:25.115Z,3.3
2019-03-04T08:22:25.163Z,3.4
2019-03-04T08:23:25.171Z,3.5
2019-03-04T08:24:25.185Z,3.4
2019-03-04T08:25:25.168Z,3.3
2019-03-04T08:26:25.191Z,3.2
2019-03-04T08:27:25.201Z,3.2
2019-03-04T08:28:25.204Z,3.1
2019-03-04T08:29:25.264Z,3
2019-03-04T08:30:25.269Z,2.9
2019-03-04T08:31:25.310Z,3
2019-03-04T08:32:25.307Z,3.3
2019-03-04T08:33:25.309Z,3
2019-03-04T08:34:30.921Z,3.2
2019-03-04T08:35:25.376Z,3
2019-03-04T08:36:25.465Z,3.2
2019-03-04T08:37:25.402Z,3.1
2019-03-04T08:38:25.424Z,3.1
2019-03-04T08:39:25.437Z,3.2
2019-03-04T08:40:25.459Z,2.9
2019-03-04T08:41:25.435Z,3.2
2019-03-04T08:42:25.446Z,3.1
2019-03-04T08:43:25.448Z,3.1
2019-03-04T08:44:25.494Z,3.3
2019-03-04T08:45:25.522Z,3.5
2019-03-04T08:46:25.620Z,3.4
2019-03-04T08:47:25.522Z,3.2
2019-03-04T08:48:25.559Z,3.3
2019-03-04T08:49:25.534Z,2.9
2019-03-04T08:50:25.577Z,2.9
2019-03-04T08:51:25.610Z,3.1
2019-03-04T08:52:25.603Z,3.2
2019-03-04T08:53:25.623Z,3.1
2019-03-04T08:54:25.602Z,3
2019-03-04T08:55:25.612Z,3.1
2019-03-04T08:56:25.596Z,2.9
2019-03-04T08:57:25.721Z,3
2019-03-04T08:58:25.648Z,3.1
2019-03-04T08:59:25.658Z,3.1
2019-03-04T09:00:25.620Z,2.9
2019-03-04T09:01:25.642Z,3.1
2019-03-04T09:02:25.690Z,2.8
2019-03-04T09:03:25.639Z,2.8
2019-03-04T09:04:25.688Z,3
2019-03-04T09:05:25.664Z,2.9
2019-03-04T09:06:25.671Z,3
2019-03-04T09:07:25.667Z,3.2
2019-03-04T09:08:25.724Z,3.2
2019-03-04T09:09:25.704Z,3.4
2019-03-04T09:10:25.674Z,2.9
2019-03-04T09:11:25.682Z,2.8
2019-03-04T09:12:25.706Z,2.8
2019-03-04T09:13:25.699Z,2.9
2019-03-04T09:14:25.703Z,3
2019-03-04T09:15:25.712Z,2.9
2019-03-04T09:16:25.731Z,3.1
2019-03-04T09:17:25.729Z,3.1
2019-03-04T09:18:25.719Z,3.2
2019-03-04T09:19:25.769Z,3.3
2019-03-04T09:20:25.764Z,3.5
2019-03-04T09:21:25.786Z,3.3
2019-03-04T09:22:25.784Z,3.6
2019-03-04T09:23:25.793Z,3.5
2019-03-04T09:24:25.775Z,3.6
2019-03-04T09:25:30.242Z,3.3
2019-03-04T09:26:28.302Z,3.4
2019-03-04T09:27:25.785Z,3.4
2019-03-04T09:28:25.809Z,3.4
2019-03-04T09:29:25.792Z,3.4
2019-03-04T09:30:25.834Z,3.4
2019-03-04T09:31:25.859Z,3.3
2019-03-04T09:32:25.827Z,3.4
2019-03-04T09:33:25.841Z,3.1
2019-03-04T09:34:25.820Z,2.8
2019-03-04T09:35:25.825Z,3.2
2019-03-04T09:36:25.843Z,3
2019-03-04T09:37:25.854Z,3.1
2019-03-04T09:38:25.838Z,2.8
2019-03-04T09:39:25.858Z,2.9
2019-03-04T09:40:25.863Z,2.7
2019-03-04T09:41:25.868Z,2.8
2019-03-04T09:42:25.859Z,3
2019-03-04T09:43:25.859Z,3.2
2019-03-04T09:44:25.881Z,3
2019-03-04T09:45:25.855Z,3.2
2019-03-04T09:46:26.026Z,3.1
2019-03-04T09:47:25.935Z,2.8
2019-03-04T09:48:25.954Z,2.9
2019-03-04T09:49:25.997Z,2.8
2019-03-04T09:50:25.983Z,2.6
2019-03-04T09:51:26.069Z,2.7
2019-03-04T09:52:25.981Z,2.7
2019-03-04T09:53:26.021Z,2.8
2019-03-04T09:54:26.018Z,2.6
2019-03-04T09:55:26.063Z,2.6
2019-03-04T09:56:26.068Z,2.3
2019-03-04T09:57:26.124Z,2.6
2019-03-04T09:58:26.103Z,2.6
2019-03-04T09:59:26.102Z,2.6
2019-03-04T10:00:26.084Z,2.4
2019-03-04T10:01:26.146Z,2.8
2019-03-04T10:02:26.156Z,2.5
2019-03-04T10:03:26.169Z,2.3
2019-03-04T10:04:26.156Z,2.6
2019-03-04T10:05:26.150Z,2.8
2019-03-04T10:06:26.208Z,2.4
2019-03-04T10:07:26.211Z,2.6
2019-03-04T10:08:32.701Z,2.7
2019-03-04T10:09:26.185Z,2.8
2019-03-04T10:10:26.208Z,2.4
2019-03-04T10:11:26.241Z,2.6
2019-03-04T10:12:27.061Z,2.5
2019-03-04T10:13:26.233Z,2.5
2019-03-04T10:14:26.335Z,2.6
2019-03-04T10:15:26.231Z,2.6
2019-03-04T10:16:26.251Z,2.8
2019-03-04T10:17:26.297Z,2.6
2019-03-04T10:18:26.245Z,2.7
2019-03-04T10:19:26.299Z,2.7
2019-03-04T10:20:26.257Z,2.5
2019-03-04T10:21:26.257Z,2.3
2019-03-04T10:22:26.556Z,2.8
2019-03-04T10:23:26.269Z,2.2
2019-03-04T10:24:26.283Z,2.2
2019-03-04T10:25:26.265Z,2.2
2019-03-04T10:26:26.304Z,2.4
2019-03-04T10:27:26.278Z,2.3
2019-03-04T10:28:26.331Z,2.5
2019-03-04T10:29:26.393Z,2.1
2019-03-04T10:30:26.542Z,2.5
2019-03-04T10:31:26.608Z,2.4
2019-03-04T10:32:26.473Z,2.3
2019-03-04T10:32:48.074Z,2.3
2019-03-04T10:33:47.904Z,2.4
2019-03-04T10:34:47.928Z,2.5
2019-03-04T10:35:47.938Z,2.5
2019-03-04T10:36:47.992Z,2.1
2019-03-04T10:37:47.976Z,2.1
2019-03-04T10:38:47.953Z,2.2
2019-03-04T10:39:48.043Z,2
2019-03-04T10:40:50.320Z,2.2
2019-03-04T10:41:48.028Z,2.2
2019-03-04T10:42:48.009Z,2.2
2019-03-04T10:43:48.018Z,1.9
2019-03-04T10:44:48.036Z,2.4
2019-03-04T10:45:48.146Z,2
2019-03-04T10:46:48.071Z,1.8
2019-03-04T10:47:48.084Z,2
2019-03-04T10:48:48.118Z,2.3
2019-03-04T10:49:48.077Z,1.9
2019-03-04T10:50:48.180Z,2.1
2019-03-04T10:51:48.114Z,2.3
2019-03-04T10:52:48.152Z,2
2019-03-04T10:53:48.165Z,1.6
2019-03-04T10:54:48.154Z,1.8
2019-03-04T10:55:48.174Z,1.7
2019-03-04T10:56:48.207Z,1.9
2019-03-04T10:57:48.186Z,1.9
2019-03-04T10:58:48.182Z,2.2
2019-03-04T10:59:48.222Z,2.1
2019-03-04T11:00:48.194Z,2
2019-03-04T11:01:49.979Z,2
2019-03-04T11:02:48.242Z,1.8
2019-03-04T11:03:48.232Z,2.2
2019-03-04T11:04:48.256Z,2
2019-03-04T11:05:48.242Z,1.9
2019-03-04T11:06:48.284Z,1.7
2019-03-04T11:07:48.295Z,1.7
2019-03-04T11:08:48.275Z,1.7
2019-03-04T11:09:48.268Z,1.7
2019-03-04T11:10:48.327Z,1.7
2019-03-04T11:11:48.308Z,1.8
2019-03-04T11:12:48.347Z,1.5
2019-03-04T11:13:48.305Z,1.9
2019-03-04T11:14:48.325Z,1.6
2019-03-04T11:15:48.317Z,1.5
2019-03-04T11:16:48.420Z,1.2
2019-03-04T11:17:48.382Z,1.1
2019-03-04T11:18:48.367Z,1.3
2019-03-04T11:19:48.392Z,1.5
2019-03-04T11:20:48.412Z,1.7
2019-03-04T11:21:48.423Z,1.4
2019-03-04T11:22:48.411Z,1.4
2019-03-04T11:23:48.464Z,1.5
2019-03-04T11:24:48.452Z,1.9
2019-03-04T11:25:48.474Z,1.6
2019-03-04T11:26:48.473Z,1.1
2019-03-04T11:27:48.496Z,1.2
2019-03-04T11:28:48.487Z,1.3
2019-03-04T11:29:48.529Z,1.4
2019-03-04T11:30:48.540Z,1.3
2019-03-04T11:31:48.527Z,1.7
2019-03-04T11:32:48.519Z,1.8
2019-03-04T11:33:48.532Z,1.8
2019-03-04T11:34:48.561Z,1.8
2019-03-04T11:35:49.639Z,2.1
2019-03-04T11:36:48.553Z,1.8
2019-03-04T11:37:48.567Z,1.6
2019-03-04T11:38:48.575Z,1.7
2019-03-04T11:39:48.569Z,1.6
2019-03-04T11:40:48.570Z,1.6
2019-03-04T11:41:48.556Z,1.4
2019-03-04T11:42:50.503Z,1.8
2019-03-04T11:43:48.591Z,1.4
2019-03-04T11:44:48.620Z,1.4
2019-03-04T11:45:48.704Z,1.6
2019-03-04T11:46:48.706Z,1.2
2019-03-04T11:47:48.761Z,1.4
2019-03-04T11:48:48.802Z,1.4
2019-03-04T11:49:48.822Z,1
2019-03-04T11:50:48.875Z,1.2
2019-03-04T11:51:48.888Z,1.1
2019-03-04T11:52:48.914Z,1.4
2019-03-04T11:53:48.971Z,1.3
2019-03-04T11:54:48.974Z,1.1
2019-03-04T11:55:48.981Z,1.4
2019-03-04T11:56:49.080Z,1.2
2019-03-04T11:57:49.118Z,1.1
2019-03-04T11:58:49.070Z,1
2019-03-04T11:59:49.108Z,0.6
2019-03-04T12:00:49.169Z,0.5
2019-03-04T12:01:49.204Z,0.4
2019-03-04T12:02:49.212Z,0.4
2019-03-04T12:03:49.280Z,0.7
2019-03-04T12:04:49.326Z,0.3
2019-03-04T12:05:49.393Z,0.4
2019-03-04T12:06:49.374Z,0.1
2019-03-04T12:07:49.349Z,0
2019-03-04T12:08:49.425Z,0.2
2019-03-04T12:09:49.403Z,0.4
2019-03-04T12:10:49.432Z,0.1
2019-03-04T12:11:49.469Z,0.4
2019-03-04T12:12:49.537Z,0
2019-03-04T12:13:49.539Z,0.1
2019-03-04T12:14:49.636Z,0.6
2019-03-04T12:15:49.618Z,0.1
2019-03-04T12:16:50.783Z,0.1
2019-03-04T12:17:49.696Z,0.1
2019-03-04T12:18:49.746Z,0.1
2019-03-04T12:19:49.778Z,0
2019-03-04T12:20:49.729Z,0.3
2019-03-04T12:21:49.754Z,-0.1
2019-03-04T12:22:49.859Z,0
2019-03-04T12:23:49.846Z,0.3
2019-03-04T12:24:49.858Z,0.4
2019-03-04T12:25:49.842Z,0.3
2019-03-04T12:26:49.897Z,0.3
2019-03-04T12:27:49.920Z,0.3
2019-03-04T12:28:49.906Z,0.4
2019-03-04T12:29:49.947Z,0.4
2019-03-04T12:30:49.964Z,0.8
2019-03-04T12:31:49.961Z,0.5
2019-03-04T12:32:49.998Z,0.2
2019-03-04T12:33:49.995Z,0.3
2019-03-04T12:34:50.025Z,0
2019-03-04T12:35:50.045Z,0
2019-03-04T12:36:50.058Z,-0.1
2019-03-04T12:37:50.058Z,0
2019-03-04T12:38:50.160Z,0
2019-03-04T12:39:50.092Z,0
2019-03-04T12:40:50.105Z,0.3
2019-03-04T12:41:50.155Z,0
2019-03-04T12:42:50.109Z,0.3
2019-03-04T12:43:50.176Z,-0.1
2019-03-04T12:44:50.140Z,-0.2
2019-03-04T12:45:50.175Z,-0.1
2019-03-04T12:46:50.215Z,0
2019-03-04T12:47:50.187Z,0
2019-03-04T12:48:50.232Z,0
2019-03-04T12:49:50.210Z,0.1
2019-03-04T12:50:50.234Z,0.2
2019-03-04T12:51:50.221Z,0.3
2019-03-04T12:52:50.225Z,0.2
2019-03-04T12:53:50.244Z,0.3
2019-03-04T12:54:50.254Z,0.6
2019-03-04T12:55:50.233Z,0
2019-03-04T12:56:50.225Z,0.4
2019-03-04T12:57:50.293Z,0.3
2019-03-04T12:58:50.241Z,0.5
2019-03-04T12:59:50.320Z,0.3
2019-03-04T13:00:50.266Z,0.6
2019-03-04T13:01:50.281Z,0.6
2019-03-04T13:02:57.323Z,0.3
2019-03-04T13:03:50.333Z,0.7
2019-03-04T13:04:50.426Z,0.9
2019-03-04T13:05:50.433Z,0.7
2019-03-04T13:06:52.957Z,0.7
2019-03-04T13:08:22.721Z,0.7
2019-03-04T13:08:50.539Z,0.5
2019-03-04T13:09:50.611Z,0.7
2019-03-04T13:10:50.638Z,0.8
2019-03-04T13:11:50.682Z,0.7
2019-03-04T13:12:50.722Z,0.8
2019-03-04T13:13:50.723Z,0.7
2019-03-04T13:14:50.733Z,0.7
2019-03-04T13:15:50.825Z,0.6
2019-03-04T13:16:50.835Z,0.1
2019-03-04T13:17:50.841Z,0.7
2019-03-04T13:18:50.904Z,0.7
2019-03-04T13:19:50.869Z,0.5
2019-03-04T13:20:50.915Z,0.7
2019-03-04T13:21:50.944Z,0.5
2019-03-04T13:22:50.993Z,0.6
2019-03-04T13:23:51.023Z,0.6
2019-03-04T13:24:51.121Z,0.3
2019-03-04T13:25:52.350Z,0.4
2019-03-04T13:26:51.084Z,0.6
2019-03-04T13:28:51.178Z,0.2
2019-03-04T13:29:51.199Z,0.3
2019-03-04T13:30:51.217Z,0.3
2019-03-04T13:31:51.228Z,0.6
2019-03-04T13:32:51.272Z,0.5
2019-03-04T13:33:51.271Z,0.9
2019-03-04T13:34:51.315Z,0.6
2019-03-04T13:35:51.330Z,0.5
2019-03-04T13:36:51.384Z,0.4
2019-03-04T13:37:51.371Z,0.4
2019-03-04T13:38:51.459Z,0.6
2019-03-04T13:39:51.438Z,0.8
2019-03-04T13:40:51.663Z,0.6
2019-03-04T13:41:51.547Z,0.7
2019-03-04T13:42:51.536Z,0.4
2019-03-04T13:43:51.570Z,0.6
2019-03-04T13:44:51.584Z,0.5
2019-03-04T13:45:51.676Z,0.7
2019-03-04T13:46:51.671Z,0.6
2019-03-04T13:47:51.672Z,1
2019-03-04T13:48:51.733Z,1.2
2019-03-04T13:49:51.735Z,1.4
2019-03-04T13:50:51.777Z,1.3
2019-03-04T13:51:51.800Z,1.6
2019-03-04T13:52:54.089Z,1.6